Time;durP1;ratioP1;P1;durP2;ratioP2;P2;SDS_P1;SDS_P2;PMS_P1;PMS_P2;Temp;Humidity;BMP_temperature;BMP_pressure;BME280_temperature;BME280_humidity;BME280_pressure;Samples;Min_cycle;Max_cycle;Signal;HPM_P1;HPM_P2
2023/06/08 00:00:00;;;;;;;2.75;2.30;;;16.90;53.10;;;;;;4987802;28;20094;-89
2023/06/08 00:02:28;;;;;;;4.22;2.10;;;16.80;53.00;;;;;;5002186;28;20029;-93
2023/06/08 00:04:54;;;;;;;3.85;2.50;;;16.80;53.00;;;;;;4991049;28;20034;-90
2023/06/08 00:07:21;;;;;;;4.15;2.50;;;16.80;53.00;;;;;;5010384;28;20065;-90
2023/06/08 00:09:48;;;;;;;3.72;2.20;;;16.80;53.10;;;;;;4987867;28;20026;-90
2023/06/08 00:12:14;;;;;;;3.30;2.38;;;16.70;53.00;;;;;;4994730;28;20035;-91
2023/06/08 00:14:40;;;;;;;8.20;3.40;;;16.70;53.00;;;;;;4995625;28;20113;-90
2023/06/08 00:17:08;;;;;;;6.20;3.00;;;16.60;53.80;;;;;;5004047;28;20033;-89
2023/06/08 00:19:37;;;;;;;4.97;2.97;;;16.60;53.50;;;;;;4999050;28;20041;-91
2023/06/08 00:22:08;;;;;;;6.07;2.95;;;16.60;54.10;;;;;;4993692;28;20134;-91
2023/06/08 00:24:37;;;;;;;7.25;3.53;;;16.50;53.90;;;;;;4986371;28;20348;-90
2023/06/08 00:27:05;;;;;;;7.40;3.00;;;16.50;54.20;;;;;;4982709;28;20045;-89
2023/06/08 00:29:31;;;;;;;4.88;3.15;;;16.40;53.90;;;;;;4981198;28;20486;-90
2023/06/08 00:31:57;;;;;;;5.45;2.80;;;16.40;54.00;;;;;;4994751;28;20080;-91
2023/06/08 00:34:24;;;;;;;4.30;2.60;;;16.30;54.20;;;;;;4992632;28;20038;-91
2023/06/08 00:36:50;;;;;;;4.28;2.70;;;16.30;54.30;;;;;;4999548;28;20061;-90
2023/06/08 00:39:16;;;;;;;7.45;2.92;;;16.20;54.40;;;;;;4997635;28;20034;-90
2023/06/08 00:41:41;;;;;;;8.05;3.03;;;16.20;54.40;;;;;;5004366;28;20030;-90
2023/06/08 00:44:08;;;;;;;7.70;3.10;;;16.30;55.20;;;;;;5021575;28;20065;-89
2023/06/08 00:46:35;;;;;;;4.40;3.33;;;16.20;54.70;;;;;;5000812;28;20030;-90
2023/06/08 00:49:02;;;;;;;4.63;3.38;;;16.20;54.80;;;;;;5011379;28;20084;-90
2023/06/08 00:51:34;;;;;;;8.63;2.67;;;16.10;54.80;;;;;;5002773;28;20114;-91
2023/06/08 00:54:01;;;;;;;6.75;2.78;;;16.10;54.90;;;;;;4999469;28;20367;-90
2023/06/08 00:56:27;;;;;;;8.00;2.90;;;16.10;54.70;;;;;;5010186;28;20030;-90
2023/06/08 00:59:00;;;;;;;7.80;2.92;;;16.10;54.70;;;;;;5013129;28;20040;-89
2023/06/08 01:01:29;;;;;;;3.43;2.60;;;16.00;55.00;;;;;;5008044;28;20030;-90
2023/06/08 01:04:05;;;;;;;4.55;2.80;;;16.00;55.00;;;;;;5020985;28;20225;-89
2023/06/08 01:06:45;;;;;;;3.33;2.58;;;16.00;55.10;;;;;;4987132;28;20080;-91
2023/06/08 01:09:33;;;;;;;8.18;3.15;;;16.10;55.80;;;;;;5010183;28;20033;-91
2023/06/08 01:12:30;;;;;;;4.85;2.70;;;16.00;55.90;;;;;;5018134;28;20034;-90
2023/06/08 01:15:16;;;;;;;3.22;2.40;;;16.00;55.90;;;;;;5011846;28;20084;-89
2023/06/08 01:17:53;;;;;;;4.22;2.50;;;16.00;55.40;;;;;;5003414;28;20043;-89
2023/06/08 01:20:29;;;;;;;4.13;2.90;;;15.90;55.50;;;;;;5031667;28;20009;-88
2023/06/08 01:23:03;;;;;;;4.38;2.45;;;15.90;55.70;;;;;;5023071;28;20029;-94
2023/06/08 01:25:31;;;;;;;4.80;2.40;;;15.90;55.40;;;;;;5030161;28;20010;-94
2023/06/08 01:28:15;;;;;;;3.75;2.38;;;15.90;55.20;;;;;;5024343;28;20022;-90
2023/06/08 01:30:45;;;;;;;4.47;2.90;;;15.90;55.70;;;;;;5003639;28;20078;-88
2023/06/08 01:33:16;;;;;;;6.80;2.55;;;15.80;55.40;;;;;;5030357;28;20122;-89
2023/06/08 01:35:44;;;;;;;4.47;2.47;;;15.80;55.70;;;;;;5001705;28;20058;-89
2023/06/08 01:38:45;;;;;;;4.47;3.17;;;15.80;55.70;;;;;;4996990;28;20027;-90
2023/06/08 01:41:17;;;;;;;4.47;2.70;;;15.80;56.40;;;;;;5017712;28;20079;-90
2023/06/08 01:43:46;;;;;;;2.58;2.33;;;15.80;55.70;;;;;;5012193;28;20113;-89
2023/06/08 01:46:14;;;;;;;6.10;2.50;;;15.70;55.60;;;;;;5012396;28;20034;-91
2023/06/08 01:48:43;;;;;;;4.20;2.42;;;15.70;55.80;;;;;;5012828;28;20607;-90
2023/06/08 01:51:10;;;;;;;4.75;2.80;;;15.70;55.80;;;;;;5008309;28;20037;-89
2023/06/08 01:53:36;;;;;;;4.50;2.97;;;15.70;55.90;;;;;;5034090;28;20024;-89
2023/06/08 01:56:03;;;;;;;4.97;3.05;;;15.60;55.80;;;;;;5001568;28;20117;-88
2023/06/08 01:58:28;;;;;;;8.35;2.92;;;15.60;56.10;;;;;;5001998;28;20025;-89
2023/06/08 02:00:55;;;;;;;4.90;2.92;;;15.60;56.10;;;;;;5005701;28;20041;-91
2023/06/08 02:03:20;;;;;;;7.47;2.58;;;15.60;56.10;;;;;;4996427;28;20121;-90
2023/06/08 02:05:46;;;;;;;5.38;2.70;;;15.50;56.00;;;;;;5019548;28;20072;-89
2023/06/08 02:08:12;;;;;;;6.40;2.72;;;15.50;56.00;;;;;;5006805;28;20037;-89
2023/06/08 02:10:37;;;;;;;5.55;3.05;;;15.50;56.20;;;;;;5002617;28;20183;-89
2023/06/08 02:13:03;;;;;;;4.60;2.47;;;15.50;56.40;;;;;;5002444;28;20600;-90
2023/06/08 02:15:29;;;;;;;3.20;2.60;;;15.50;56.60;;;;;;5008765;28;20056;-89
2023/06/08 02:17:58;;;;;;;4.57;2.80;;;15.40;56.60;;;;;;5007633;28;20125;-91
2023/06/08 02:20:25;;;;;;;4.32;2.92;;;15.40;56.70;;;;;;5009546;28;20030;-90
2023/06/08 02:22:51;;;;;;;3.50;2.92;;;15.40;56.90;;;;;;5007271;28;20107;-90
2023/06/08 02:25:17;;;;;;;4.97;2.58;;;15.40;56.90;;;;;;5006860;28;20026;-90
2023/06/08 02:27:43;;;;;;;4.10;3.00;;;15.30;56.80;;;;;;5011762;28;20823;-90
2023/06/08 02:30:13;;;;;;;3.90;2.78;;;15.30;56.80;;;;;;5011249;28;20115;-90
2023/06/08 02:32:41;;;;;;;3.50;2.67;;;15.30;57.70;;;;;;5007789;28;20029;-90
2023/06/08 02:35:08;;;;;;;3.63;2.60;;;15.20;56.90;;;;;;5011535;28;20125;-91
2023/06/08 02:37:36;;;;;;;4.90;3.00;;;15.20;57.00;;;;;;5013183;28;20029;-91
2023/06/08 02:40:04;;;;;;;4.35;2.92;;;15.20;57.30;;;;;;5000286;28;20034;-91
2023/06/08 02:42:30;;;;;;;4.18;2.78;;;15.20;57.50;;;;;;5011519;28;20030;-91
2023/06/08 02:44:55;;;;;;;2.80;2.50;;;15.20;57.50;;;;;;5010354;28;20515;-90
2023/06/08 02:47:21;;;;;;;4.97;3.03;;;15.10;57.40;;;;;;4998748;28;20036;-90
2023/06/08 02:49:47;;;;;;;4.50;2.90;;;15.10;57.60;;;;;;5000251;28;20030;-91
2023/06/08 02:52:13;;;;;;;4.38;3.05;;;15.10;57.70;;;;;;5027519;28;20036;-90
2023/06/08 02:54:38;;;;;;;3.35;2.45;;;15.00;57.60;;;;;;5006693;28;20033;-90
2023/06/08 02:57:05;;;;;;;4.13;2.95;;;15.00;57.70;;;;;;5005949;28;20037;-91
2023/06/08 02:59:31;;;;;;;8.15;2.83;;;15.00;57.80;;;;;;5006865;28;20112;-91
2023/06/08 03:01:57;;;;;;;3.67;2.78;;;15.00;57.80;;;;;;5007810;28;20172;-91
2023/06/08 03:04:25;;;;;;;3.42;2.70;;;14.90;57.90;;;;;;5005924;28;20026;-90
2023/06/08 03:06:54;;;;;;;3.17;2.70;;;14.90;58.10;;;;;;5020785;28;20041;-91
2023/06/08 03:09:24;;;;;;;3.60;2.90;;;14.90;58.20;;;;;;5005299;28;20038;-92
2023/06/08 03:11:51;;;;;;;3.55;3.10;;;14.80;58.30;;;;;;5004683;28;20029;-91
2023/06/08 03:14:18;;;;;;;4.00;2.92;;;14.80;58.20;;;;;;5015549;28;20021;-90
2023/06/08 03:16:45;;;;;;;4.43;3.03;;;14.80;58.30;;;;;;5004852;28;20045;-90
2023/06/08 03:19:11;;;;;;;4.68;3.03;;;14.80;58.40;;;;;;5011491;28;20117;-90
2023/06/08 03:21:38;;;;;;;4.50;2.75;;;14.80;58.40;;;;;;5018086;28;20029;-90
2023/06/08 03:24:04;;;;;;;5.15;3.40;;;14.70;58.30;;;;;;5013921;28;20450;-91
2023/06/08 03:26:30;;;;;;;7.03;2.92;;;14.70;58.60;;;;;;5024832;28;20107;-91
2023/06/08 03:28:56;;;;;;;6.55;3.30;;;14.70;58.50;;;;;;5013244;28;20030;-91
2023/06/08 03:31:22;;;;;;;3.75;3.08;;;14.70;58.50;;;;;;5011911;28;20369;-91
2023/06/08 03:33:48;;;;;;;3.58;2.92;;;14.70;58.50;;;;;;5008159;28;20487;-91
2023/06/08 03:36:15;;;;;;;4.30;3.03;;;14.70;58.70;;;;;;5013348;28;20049;-91
2023/06/08 03:38:41;;;;;;;8.68;3.22;;;14.70;58.80;;;;;;5015149;28;20026;-91
2023/06/08 03:41:08;;;;;;;3.35;2.90;;;14.70;59.00;;;;;;5005182;28;20118;-91
2023/06/08 03:43:35;;;;;;;4.57;3.20;;;14.60;58.90;;;;;;5012179;28;20426;-91
2023/06/08 03:46:01;;;;;;;6.70;3.35;;;14.60;59.00;;;;;;5002861;28;20124;-90
2023/06/08 03:48:27;;;;;;;4.13;2.97;;;14.60;59.00;;;;;;5022096;28;20075;-93
2023/06/08 03:50:53;;;;;;;5.50;3.28;;;14.60;58.90;;;;;;5024980;28;20434;-91
2023/06/08 03:53:18;;;;;;;4.40;3.20;;;14.60;58.90;;;;;;5016457;28;20029;-92
2023/06/08 03:55:44;;;;;;;3.95;2.90;;;14.60;58.90;;;;;;5010203;28;20421;-91
2023/06/08 03:58:13;;;;;;;3.30;2.78;;;14.60;59.10;;;;;;5013497;28;20026;-91
2023/06/08 04:00:39;;;;;;;3.47;2.95;;;14.60;59.10;;;;;;5009275;28;20029;-91
2023/06/08 04:03:05;;;;;;;9.32;2.78;;;14.60;59.10;;;;;;5006488;28;20029;-90
2023/06/08 04:05:33;;;;;;;5.78;3.10;;;14.60;59.10;;;;;;5014279;28;20033;-91
2023/06/08 04:08:02;;;;;;;3.45;3.13;;;14.60;59.20;;;;;;5006759;28;20053;-89
2023/06/08 04:10:27;;;;;;;5.32;3.28;;;14.60;59.20;;;;;;5014449;28;20034;-89
2023/06/08 04:12:53;;;;;;;6.13;3.30;;;14.60;59.20;;;;;;5012781;28;20502;-90
2023/06/08 04:15:19;;;;;;;4.00;2.85;;;14.60;59.20;;;;;;5008566;28;20025;-94
2023/06/08 04:17:46;;;;;;;7.35;3.10;;;14.70;59.10;;;;;;5013601;28;20096;-89
2023/06/08 04:20:13;;;;;;;5.57;3.20;;;14.70;59.70;;;;;;5007981;28;20030;-90
2023/06/08 04:22:38;;;;;;;4.72;2.95;;;14.70;59.20;;;;;;5008173;28;20037;-90
2023/06/08 04:25:05;;;;;;;3.90;3.05;;;14.70;59.30;;;;;;5014649;28;20385;-89
2023/06/08 04:27:31;;;;;;;7.85;3.60;;;14.80;59.30;;;;;;5016012;28;20162;-89
2023/06/08 04:29:57;;;;;;;5.68;2.78;;;14.80;59.50;;;;;;5010334;28;20033;-89
2023/06/08 04:32:23;;;;;;;5.25;3.20;;;14.80;59.30;;;;;;5017061;28;20022;-92
2023/06/08 04:34:49;;;;;;;8.43;3.70;;;14.90;59.20;;;;;;5019609;28;20029;-89
2023/06/08 04:37:15;;;;;;;4.47;2.97;;;14.90;59.30;;;;;;5014232;28;20473;-90
2023/06/08 04:39:41;;;;;;;9.98;3.58;;;15.00;59.30;;;;;;5016982;28;20411;-90
2023/06/08 04:42:08;;;;;;;5.35;3.42;;;15.00;59.30;;;;;;5001861;28;20030;-88
2023/06/08 04:44:34;;;;;;;4.07;2.78;;;15.10;59.40;;;;;;5007848;28;20026;-90
2023/06/08 04:47:01;;;;;;;3.17;2.70;;;15.10;59.20;;;;;;4999804;28;20044;-90
2023/06/08 04:49:31;;;;;;;8.48;3.35;;;15.20;59.20;;;;;;5010939;28;20076;-89
2023/06/08 04:51:58;;;;;;;10.18;3.10;;;15.30;59.30;;;;;;5019146;28;20086;-90
2023/06/08 04:54:25;;;;;;;7.22;3.22;;;15.40;59.30;;;;;;5015300;28;20456;-90
2023/06/08 04:56:53;;;;;;;3.75;2.90;;;15.50;59.20;;;;;;5014951;28;20124;-89
2023/06/08 04:59:19;;;;;;;12.18;3.63;;;15.50;59.00;;;;;;4998796;28;20098;-90
2023/06/08 05:01:45;;;;;;;4.50;3.05;;;15.60;58.90;;;;;;5002918;28;20092;-90
2023/06/08 05:04:11;;;;;;;4.82;3.00;;;15.70;58.80;;;;;;5016658;28;20040;-89
2023/06/08 05:06:37;;;;;;;4.80;2.97;;;15.80;59.00;;;;;;5019087;28;20030;-89
2023/06/08 05:09:03;;;;;;;16.90;3.80;;;15.90;58.90;;;;;;5007880;28;20037;-89
2023/06/08 05:11:29;;;;;;;9.98;3.90;;;16.00;58.90;;;;;;5024083;28;20026;-90
2023/06/08 05:13:54;;;;;;;18.23;3.78;;;16.10;58.80;;;;;;5019669;28;20074;-90
2023/06/08 05:16:20;;;;;;;5.75;3.45;;;16.30;58.70;;;;;;5021001;28;20041;-90
2023/06/08 05:18:46;;;;;;;7.57;3.88;;;16.40;58.60;;;;;;5006888;28;20342;-90
2023/06/08 05:21:12;;;;;;;9.13;3.40;;;16.50;58.50;;;;;;5032706;28;20017;-90
2023/06/08 05:23:39;;;;;;;10.02;3.28;;;16.60;58.30;;;;;;5025761;28;20044;-90
2023/06/08 05:26:05;;;;;;;6.72;3.20;;;16.70;58.20;;;;;;5046797;28;20101;-92
2023/06/08 05:28:30;;;;;;;6.70;3.30;;;16.80;58.00;;;;;;5029336;28;20022;-94
2023/06/08 05:30:56;;;;;;;6.20;3.63;;;16.90;58.00;;;;;;5012738;28;20040;-90
2023/06/08 05:33:22;;;;;;;6.53;3.08;;;17.00;58.00;;;;;;5011624;28;20087;-89
2023/06/08 05:35:47;;;;;;;7.72;3.38;;;17.10;57.80;;;;;;5011532;28;20103;-91
2023/06/08 05:38:13;;;;;;;6.43;3.25;;;17.30;57.80;;;;;;4997742;28;20030;-90
2023/06/08 05:40:39;;;;;;;6.00;3.35;;;17.40;57.50;;;;;;4999110;28;20026;-89
2023/06/08 05:43:05;;;;;;;18.25;3.63;;;17.60;57.60;;;;;;5010294;28;20038;-90
2023/06/08 05:45:30;;;;;;;6.13;3.35;;;17.70;57.60;;;;;;5014013;28;20147;-90
2023/06/08 05:47:56;;;;;;;13.02;3.28;;;17.80;57.30;;;;;;5017807;28;20044;-91
2023/06/08 05:50:26;;;;;;;6.90;3.60;;;18.00;57.20;;;;;;5004351;28;20116;-90
2023/06/08 05:52:52;;;;;;;10.82;3.00;;;18.10;57.30;;;;;;5015821;28;20094;-90
2023/06/08 05:55:17;;;;;;;8.18;3.70;;;18.30;56.90;;;;;;5003798;28;20117;-90
2023/06/08 05:57:43;;;;;;;9.38;3.60;;;18.40;56.60;;;;;;5005062;28;20034;-90
2023/06/08 06:00:11;;;;;;;8.43;4.00;;;18.60;56.50;;;;;;5004664;28;20089;-90
2023/06/08 06:02:40;;;;;;;8.45;3.85;;;18.70;56.70;;;;;;4995939;28;20104;-90
2023/06/08 06:05:09;;;;;;;6.45;3.45;;;18.90;56.80;;;;;;5004258;28;20120;-91
2023/06/08 06:07:35;;;;;;;7.32;4.07;;;19.10;56.60;;;;;;5013346;28;20037;-91
2023/06/08 06:10:02;;;;;;;5.95;3.67;;;19.20;56.40;;;;;;5004776;28;20481;-91
2023/06/08 06:12:28;;;;;;;7.07;3.80;;;19.40;56.20;;;;;;5011812;28;20065;-90
2023/06/08 06:14:55;;;;;;;5.30;3.63;;;19.60;55.90;;;;;;5002094;28;20053;-93
2023/06/08 06:17:21;;;;;;;10.98;4.65;;;19.80;55.90;;;;;;4998172;28;20037;-89
2023/06/08 06:19:46;;;;;;;10.95;4.85;;;19.90;55.80;;;;;;5005582;28;20440;-88
2023/06/08 06:22:12;;;;;;;6.57;4.13;;;20.10;56.00;;;;;;5000821;28;20022;-95
2023/06/08 06:24:38;;;;;;;7.38;4.68;;;20.20;55.90;;;;;;4998626;28;20072;-89
2023/06/08 06:27:05;;;;;;;7.70;4.38;;;20.40;55.70;;;;;;4998644;28;20461;-90
2023/06/08 06:29:31;;;;;;;7.43;4.57;;;20.60;55.90;;;;;;5021964;28;20026;-90
2023/06/08 06:31:57;;;;;;;7.30;5.00;;;20.80;55.90;;;;;;5003909;28;20535;-90
2023/06/08 06:34:23;;;;;;;6.78;4.00;;;20.90;55.70;;;;;;5001086;28;20031;-91
2023/06/08 06:36:48;;;;;;;9.60;4.63;;;21.00;55.60;;;;;;5000625;28;20080;-89
2023/06/08 06:39:15;;;;;;;9.35;4.93;;;21.20;55.50;;;;;;5003518;28;20045;-94
2023/06/08 06:41:41;;;;;;;7.40;5.07;;;21.40;55.80;;;;;;5018477;28;20088;-89
2023/06/08 06:44:07;;;;;;;7.85;5.40;;;21.50;55.50;;;;;;4996208;28;20026;-89
2023/06/08 06:46:33;;;;;;;5.50;4.88;;;21.60;55.50;;;;;;5026937;28;20083;-89
2023/06/08 06:48:59;;;;;;;7.55;5.35;;;21.80;55.30;;;;;;5004307;28;20034;-89
2023/06/08 06:51:25;;;;;;;8.57;5.80;;;21.90;55.20;;;;;;5009035;28;20389;-89
2023/06/08 06:53:51;;;;;;;8.27;5.75;;;22.00;55.20;;;;;;5015275;28;20030;-91
2023/06/08 06:56:17;;;;;;;7.38;5.97;;;22.10;55.10;;;;;;5004978;28;20104;-93
2023/06/08 06:58:44;;;;;;;7.80;5.68;;;22.40;55.20;;;;;;5005957;28;20025;-90
2023/06/08 07:01:15;;;;;;;7.38;5.80;;;22.40;55.20;;;;;;4999367;28;20040;-91
2023/06/08 07:03:43;;;;;;;11.32;5.38;;;22.50;55.00;;;;;;5012826;28;20037;-91
2023/06/08 07:06:13;;;;;;;6.18;4.90;;;22.60;54.90;;;;;;5008479;28;20369;-92
2023/06/08 07:08:39;;;;;;;6.32;5.40;;;22.70;54.80;;;;;;5005750;28;20439;-92
2023/06/08 07:11:05;;;;;;;6.65;5.25;;;22.80;54.60;;;;;;5001036;28;20405;-91
2023/06/08 07:13:31;;;;;;;7.32;5.88;;;22.90;54.40;;;;;;5006435;28;20422;-90
2023/06/08 07:15:58;;;;;;;8.93;5.72;;;23.00;54.30;;;;;;5009775;28;20043;-92
2023/06/08 07:18:24;;;;;;;6.28;4.80;;;23.10;53.70;;;;;;5006240;28;20032;-91
2023/06/08 07:20:50;;;;;;;6.72;5.30;;;23.20;53.60;;;;;;4998934;28;20029;-92
2023/06/08 07:23:15;;;;;;;9.75;5.90;;;23.30;53.70;;;;;;5011541;28;20071;-93
2023/06/08 07:25:41;;;;;;;7.15;5.18;;;23.40;53.50;;;;;;5005432;28;20084;-91
2023/06/08 07:28:08;;;;;;;6.22;4.75;;;23.50;53.20;;;;;;5019909;28;20473;-92
2023/06/08 07:30:35;;;;;;;6.43;5.20;;;23.60;52.90;;;;;;4997605;28;20058;-91
2023/06/08 07:33:04;;;;;;;6.05;4.68;;;23.70;52.70;;;;;;5010761;28;20116;-91
2023/06/08 07:35:29;;;;;;;6.10;5.05;;;23.80;52.40;;;;;;5006806;28;20042;-91
2023/06/08 07:37:55;;;;;;;6.75;5.03;;;23.90;52.20;;;;;;5011092;28;20146;-91
2023/06/08 07:40:21;;;;;;;5.43;4.93;;;24.00;51.80;;;;;;4999724;28;20072;-92
2023/06/08 07:42:47;;;;;;;8.55;5.70;;;24.10;51.70;;;;;;5011963;28;20038;-92
2023/06/08 07:45:13;;;;;;;6.82;4.78;;;24.20;52.20;;;;;;5008869;28;20025;-91
2023/06/08 07:47:41;;;;;;;8.02;5.70;;;24.30;51.40;;;;;;5005258;28;20030;-91
2023/06/08 07:50:08;;;;;;;7.63;5.13;;;24.40;51.20;;;;;;5005525;28;20096;-91
2023/06/08 07:52:34;;;;;;;6.43;4.88;;;24.50;51.00;;;;;;5009033;28;20029;-92
2023/06/08 07:55:00;;;;;;;4.97;4.45;;;24.60;50.60;;;;;;5006824;28;20064;-91
2023/06/08 07:57:26;;;;;;;6.05;4.38;;;24.70;50.70;;;;;;5007898;28;20041;-91
2023/06/08 07:59:52;;;;;;;5.43;4.65;;;24.70;50.40;;;;;;5016954;28;20040;-91
2023/06/08 08:02:18;;;;;;;7.18;5.15;;;24.90;50.20;;;;;;5008952;28;20032;-91
2023/06/08 08:04:44;;;;;;;6.07;5.03;;;25.00;50.10;;;;;;5003200;28;20034;-90
2023/06/08 08:07:10;;;;;;;9.85;5.07;;;25.10;50.00;;;;;;5007356;28;20033;-93
2023/06/08 08:09:36;;;;;;;5.65;4.82;;;25.20;49.90;;;;;;5005022;28;20037;-91
2023/06/08 08:12:02;;;;;;;6.78;4.50;;;25.30;49.40;;;;;;5018507;28;20095;-90
2023/06/08 08:14:28;;;;;;;5.32;4.35;;;25.40;49.70;;;;;;5006586;28;20088;-90
2023/06/08 08:16:53;;;;;;;4.82;4.32;;;25.50;49.50;;;;;;5011670;28;20063;-90
2023/06/08 08:19:19;;;;;;;7.47;4.20;;;25.70;49.20;;;;;;5016011;28;20052;-90
2023/06/08 08:21:45;;;;;;;5.60;4.40;;;25.80;48.40;;;;;;5010392;28;20717;-90
2023/06/08 08:24:11;;;;;;;6.35;4.13;;;25.90;48.00;;;;;;5003254;28;20461;-90
2023/06/08 08:26:40;;;;;;;5.30;4.15;;;26.00;47.70;;;;;;5009643;28;20477;-91
2023/06/08 08:29:06;;;;;;;6.95;4.20;;;26.10;47.10;;;;;;5007413;28;20037;-90
2023/06/08 08:31:32;;;;;;;6.68;4.00;;;26.20;46.80;;;;;;5002723;28;20026;-90
2023/06/08 08:33:58;;;;;;;4.75;3.78;;;26.30;47.10;;;;;;5007972;28;20131;-90
2023/06/08 08:36:24;;;;;;;5.30;3.85;;;26.40;46.20;;;;;;5022570;28;20523;-89
2023/06/08 08:38:49;;;;;;;4.55;3.70;;;26.50;46.10;;;;;;5014291;28;20037;-90
2023/06/08 08:41:19;;;;;;;5.43;3.58;;;26.60;45.20;;;;;;5008770;28;20365;-89
2023/06/08 08:44:01;;;;;;;3.67;3.13;;;26.80;44.70;;;;;;5012461;28;20041;-89
2023/06/08 08:46:37;;;;;;;6.95;3.78;;;26.90;44.90;;;;;;5010194;28;20157;-90
2023/06/08 08:49:08;;;;;;;3.90;3.20;;;27.00;44.70;;;;;;5013377;28;20029;-90
2023/06/08 08:51:43;;;;;;;4.72;3.15;;;27.10;44.20;;;;;;5002142;28;20030;-89
2023/06/08 08:54:12;;;;;;;5.10;3.20;;;27.20;43.70;;;;;;4997913;28;20110;-89
2023/06/08 08:56:38;;;;;;;5.50;2.97;;;27.30;43.30;;;;;;5021062;28;20029;-90
2023/06/08 08:59:05;;;;;;;4.18;3.42;;;27.40;42.80;;;;;;5004316;28;20026;-90
2023/06/08 09:01:34;;;;;;;5.80;3.45;;;27.50;43.10;;;;;;5021571;28;20060;-91
2023/06/08 09:04:01;;;;;;;4.82;3.78;;;27.60;42.50;;;;;;5019983;28;20033;-91
2023/06/08 09:06:30;;;;;;;5.28;3.40;;;27.70;42.30;;;;;;5002913;28;20029;-90
2023/06/08 09:08:56;;;;;;;4.35;3.45;;;27.80;42.40;;;;;;5028452;28;20050;-89
2023/06/08 09:11:22;;;;;;;3.50;3.20;;;27.90;42.00;;;;;;5000172;28;20040;-89
2023/06/08 09:13:48;;;;;;;5.55;3.25;;;28.00;41.80;;;;;;5015556;28;20116;-89
2023/06/08 09:16:19;;;;;;;7.78;3.65;;;28.10;41.20;;;;;;5018779;28;20129;-90
2023/06/08 09:18:46;;;;;;;5.03;3.80;;;28.20;41.50;;;;;;5024650;28;20018;-92
2023/06/08 09:21:28;;;;;;;5.43;3.70;;;28.30;41.50;;;;;;5039727;28;20034;-89
2023/06/08 09:24:11;;;;;;;5.85;2.95;;;28.40;40.90;;;;;;5027387;28;20041;-94
2023/06/08 09:26:45;;;;;;;3.10;2.80;;;28.40;40.10;;;;;;5036001;28;20041;-89
2023/06/08 09:29:12;;;;;;;6.20;2.90;;;28.50;40.60;;;;;;5027519;28;20033;-90
2023/06/08 09:31:49;;;;;;;8.77;3.53;;;28.60;40.00;;;;;;5015569;28;20025;-90
2023/06/08 09:34:16;;;;;;;4.60;3.20;;;28.70;38.80;;;;;;5000846;28;20041;-90
2023/06/08 09:36:43;;;;;;;4.72;3.67;;;28.70;39.90;;;;;;5015829;28;20053;-90
2023/06/08 09:39:09;;;;;;;5.10;3.72;;;28.70;39.40;;;;;;5003199;28;20041;-91
2023/06/08 09:41:38;;;;;;;4.80;3.83;;;28.80;38.00;;;;;;5022564;28;20026;-92
2023/06/08 09:44:18;;;;;;;3.72;3.28;;;28.80;38.20;;;;;;5019246;28;20034;-91
2023/06/08 09:46:48;;;;;;;6.03;3.53;;;28.70;36.80;;;;;;5012272;28;20036;-91
2023/06/08 09:49:15;;;;;;;5.90;3.30;;;28.70;37.60;;;;;;5000994;28;20034;-92
2023/06/08 09:51:47;;;;;;;5.43;3.45;;;28.70;38.40;;;;;;5011627;28;20105;-91
2023/06/08 09:54:15;;;;;;;6.28;3.28;;;28.80;38.30;;;;;;5002465;28;20488;-91
2023/06/08 09:56:52;;;;;;;4.60;3.03;;;28.90;37.50;;;;;;5026130;28;20064;-90
2023/06/08 09:59:21;;;;;;;4.85;2.92;;;29.00;37.30;;;;;;5012620;28;20038;-90
2023/06/08 10:02:00;;;;;;;4.22;2.92;;;29.00;36.20;;;;;;5012528;28;20490;-90
2023/06/08 10:04:37;;;;;;;6.97;3.00;;;29.10;35.70;;;;;;5019480;28;20491;-91
2023/06/08 10:07:10;;;;;;;5.90;3.40;;;29.20;35.00;;;;;;5001241;28;20377;-90
2023/06/08 10:09:39;;;;;;;4.00;3.15;;;29.30;36.80;;;;;;5005202;28;20037;-91
2023/06/08 10:12:05;;;;;;;3.72;3.13;;;29.40;35.90;;;;;;5000069;28;20104;-90
2023/06/08 10:14:32;;;;;;;4.22;2.83;;;29.40;36.20;;;;;;5006730;28;20489;-91
2023/06/08 10:16:59;;;;;;;3.90;3.13;;;29.40;36.30;;;;;;5015214;28;20136;-91
2023/06/08 10:19:26;;;;;;;3.92;2.83;;;29.50;36.00;;;;;;5015382;28;20055;-90
2023/06/08 10:21:52;;;;;;;3.50;2.75;;;29.50;35.90;;;;;;5007083;28;20029;-91
2023/06/08 10:24:20;;;;;;;6.40;2.92;;;29.60;35.80;;;;;;5018130;28;20030;-91
2023/06/08 10:26:50;;;;;;;3.92;3.47;;;29.70;36.10;;;;;;5011272;28;20128;-90
2023/06/08 10:29:16;;;;;;;3.97;2.85;;;29.70;36.30;;;;;;5014706;28;20065;-90
2023/06/08 10:31:47;;;;;;;4.88;3.35;;;29.80;35.70;;;;;;5002651;28;20103;-91
2023/06/08 10:34:15;;;;;;;6.28;3.28;;;29.90;35.00;;;;;;5019489;28;20029;-90
2023/06/08 10:36:42;;;;;;;6.72;2.90;;;30.00;35.80;;;;;;5001077;28;20042;-90
2023/06/08 10:39:14;;;;;;;5.05;3.40;;;30.10;35.30;;;;;;4997965;28;20030;-90
2023/06/08 10:41:44;;;;;;;4.10;2.88;;;30.10;34.60;;;;;;4991392;28;20034;-91
2023/06/08 10:44:31;;;;;;;3.35;2.88;;;30.10;34.50;;;;;;4992033;28;20140;-91
2023/06/08 10:47:08;;;;;;;2.65;2.40;;;30.00;33.20;;;;;;4986061;28;20477;-93
2023/06/08 10:49:36;;;;;;;2.65;2.30;;;29.90;33.90;;;;;;4997800;28;20033;-90
2023/06/08 10:52:03;;;;;;;3.03;2.50;;;29.90;34.20;;;;;;4993491;28;20533;-90
2023/06/08 10:54:30;;;;;;;3.35;2.60;;;29.90;34.10;;;;;;4989669;28;20030;-91
2023/06/08 10:57:04;;;;;;;3.28;2.90;;;29.90;33.70;;;;;;5002012;28;20133;-90
2023/06/08 10:59:37;;;;;;;3.05;2.33;;;30.00;33.10;;;;;;4982947;28;20033;-91
2023/06/08 11:02:06;;;;;;;2.78;2.42;;;30.10;32.80;;;;;;4985836;28;21581;-92
2023/06/08 11:04:34;;;;;;;3.33;2.70;;;30.20;32.30;;;;;;4973729;28;20030;-92
2023/06/08 11:07:04;;;;;;;2.95;2.17;;;30.20;31.50;;;;;;4984425;28;20034;-91
2023/06/08 11:09:36;;;;;;;3.28;2.40;;;30.20;31.70;;;;;;4982611;28;20055;-90
2023/06/08 11:12:03;;;;;;;3.38;2.17;;;30.20;31.60;;;;;;4985073;28;20030;-91
2023/06/08 11:14:29;;;;;;;3.60;2.50;;;30.30;32.30;;;;;;4983785;28;20057;-91
2023/06/08 11:16:56;;;;;;;3.10;2.30;;;30.30;32.50;;;;;;5000685;28;20143;-91
2023/06/08 11:19:23;;;;;;;3.28;2.15;;;30.30;33.10;;;;;;5005700;28;20488;-90
2023/06/08 11:21:53;;;;;;;4.10;2.72;;;30.40;32.70;;;;;;5000956;28;20022;-89
2023/06/08 11:24:20;;;;;;;2.53;2.15;;;30.50;32.60;;;;;;4988632;28;20022;-90
2023/06/08 11:26:46;;;;;;;3.28;2.40;;;30.60;32.60;;;;;;4988996;28;20105;-90
2023/06/08 11:29:13;;;;;;;3.60;2.67;;;30.70;31.00;;;;;;4990902;28;20034;-90
2023/06/08 11:31:42;;;;;;;3.35;2.20;;;30.80;30.80;;;;;;4985742;28;20033;-89
2023/06/08 11:34:13;;;;;;;4.65;2.42;;;30.90;30.60;;;;;;4987209;28;20026;-90
2023/06/08 11:36:40;;;;;;;2.35;2.15;;;30.90;30.20;;;;;;4982300;28;20046;-90
2023/06/08 11:39:07;;;;;;;4.10;2.58;;;30.90;30.70;;;;;;4987571;28;20042;-91
2023/06/08 11:41:33;;;;;;;4.60;2.53;;;30.90;29.60;;;;;;4992915;28;20034;-90
2023/06/08 11:43:59;;;;;;;7.00;2.60;;;30.90;30.00;;;;;;4992852;28;20057;-89
2023/06/08 11:46:26;;;;;;;3.22;2.40;;;30.80;30.50;;;;;;4992484;28;20386;-90
2023/06/08 11:48:52;;;;;;;3.97;2.63;;;30.70;29.30;;;;;;4988106;28;20467;-90
2023/06/08 11:51:18;;;;;;;2.92;2.70;;;30.70;29.30;;;;;;4986307;28;20102;-90
2023/06/08 11:53:47;;;;;;;3.53;2.67;;;30.70;29.90;;;;;;4995061;28;20037;-91
2023/06/08 11:56:13;;;;;;;5.22;2.50;;;30.70;29.10;;;;;;4988826;28;20038;-90
2023/06/08 11:58:40;;;;;;;2.92;2.60;;;30.60;29.40;;;;;;4989939;28;20373;-90
2023/06/08 12:01:11;;;;;;;4.10;2.40;;;30.60;29.20;;;;;;4982397;28;20253;-89
2023/06/08 12:03:48;;;;;;;3.15;2.85;;;30.50;30.00;;;;;;4991180;28;20041;-91
2023/06/08 12:06:16;;;;;;;2.22;1.92;;;30.60;29.60;;;;;;4994324;28;20049;-91
2023/06/08 12:08:42;;;;;;;3.65;2.70;;;30.60;29.40;;;;;;4982484;28;20066;-90
2023/06/08 12:11:10;;;;;;;3.70;2.70;;;30.60;29.90;;;;;;4985409;28;20096;-89
2023/06/08 12:13:37;;;;;;;2.85;2.47;;;30.70;30.60;;;;;;4991101;28;20045;-90
2023/06/08 12:16:06;;;;;;;4.03;2.70;;;30.80;30.30;;;;;;4982845;28;20038;-91
2023/06/08 12:18:43;;;;;;;2.67;2.35;;;30.90;29.40;;;;;;4993048;28;20112;-91
2023/06/08 12:21:14;;;;;;;4.57;2.72;;;31.00;29.70;;;;;;4991298;28;20027;-90
2023/06/08 12:23:40;;;;;;;3.47;2.33;;;31.00;30.70;;;;;;4982740;28;20030;-90
2023/06/08 12:26:06;;;;;;;6.35;2.90;;;31.10;30.80;;;;;;4997095;28;20034;-90
2023/06/08 12:28:32;;;;;;;3.03;2.70;;;31.20;29.90;;;;;;4986087;28;20039;-91
2023/06/08 12:31:00;;;;;;;2.90;2.50;;;31.20;29.30;;;;;;4983913;28;20030;-90
2023/06/08 12:33:27;;;;;;;6.03;2.42;;;31.20;29.40;;;;;;4983647;28;20034;-91
2023/06/08 12:35:54;;;;;;;2.50;2.30;;;31.20;29.80;;;;;;4998801;28;20050;-90
2023/06/08 12:38:20;;;;;;;3.28;2.60;;;31.10;29.10;;;;;;4984531;28;20496;-91
2023/06/08 12:40:48;;;;;;;2.97;2.65;;;31.00;29.10;;;;;;4996929;28;20471;-89
2023/06/08 12:43:18;;;;;;;5.30;2.40;;;30.90;29.00;;;;;;4985234;28;20026;-91
2023/06/08 12:45:47;;;;;;;4.53;2.72;;;30.90;29.10;;;;;;4980014;28;20037;-90
2023/06/08 12:48:13;;;;;;;4.75;2.92;;;30.90;28.70;;;;;;4991554;28;20025;-90